Time;durP1;ratioP1;P1;durP2;ratioP2;P2;SDS_P1;SDS_P2;PMS_P1;PMS_P2;Temp;Humidity;BMP_temperature;BMP_pressure;BME280_temperature;BME280_humidity;BME280_pressure;Samples;Min_cycle;Max_cycle;Signal;HPM_P1;HPM_P2
2023/01/25 00:00:13;;;;;;;40.90;23.73;;;1.30;99.90;;;;;;7389892;19;21165;-83
2023/01/25 00:02:39;;;;;;;37.38;21.67;;;1.30;99.90;;;;;;7390954;19;20309;-78
2023/01/25 00:05:05;;;;;;;37.13;22.67;;;1.30;99.90;;;;;;7391363;19;20636;-80
2023/01/25 00:07:30;;;;;;;37.17;23.38;;;1.30;99.90;;;;;;7390691;19;20323;-78
2023/01/25 00:09:56;;;;;;;47.92;25.77;;;1.30;99.90;;;;;;7390445;19;20312;-80
2023/01/25 00:12:22;;;;;;;37.70;22.20;;;1.30;99.90;;;;;;7388681;19;20894;-77
2023/01/25 00:14:47;;;;;;;38.13;22.63;;;1.30;99.90;;;;;;7390714;19;20297;-79
2023/01/25 00:17:13;;;;;;;37.15;22.15;;;1.30;99.90;;;;;;7390324;19;20380;-76
2023/01/25 00:19:38;;;;;;;38.10;23.33;;;1.30;99.90;;;;;;7391929;19;20309;-82
2023/01/25 00:22:04;;;;;;;38.72;22.95;;;1.40;99.90;;;;;;7390072;19;20320;-78
2023/01/25 00:24:35;;;;;;;41.27;23.60;;;1.40;99.90;;;;;;7388967;19;20682;-82
2023/01/25 00:27:01;;;;;;;36.45;21.20;;;1.40;99.90;;;;;;7391424;19;20309;-82
2023/01/25 00:29:33;;;;;;;37.10;21.50;;;1.40;99.90;;;;;;7390955;19;20870;-81
2023/01/25 00:32:10;;;;;;;38.15;22.73;;;1.50;99.90;;;;;;7390036;19;20316;-78
2023/01/25 00:34:48;;;;;;;38.57;23.00;;;1.50;99.90;;;;;;7388687;19;20312;-80
2023/01/25 00:37:17;;;;;;;36.38;22.40;;;1.40;99.90;;;;;;7286607;19;2016187;-79
2023/01/25 00:39:42;;;;;;;37.22;22.58;;;1.40;99.90;;;;;;7390404;19;20312;-77
2023/01/25 00:42:10;;;;;;;44.75;25.90;;;1.40;99.90;;;;;;7391112;19;20316;-77
2023/01/25 00:44:36;;;;;;;45.08;26.65;;;1.40;99.90;;;;;;7390443;19;20891;-83
2023/01/25 00:47:01;;;;;;;42.85;23.80;;;1.40;99.90;;;;;;7389584;19;20797;-82
2023/01/25 00:49:29;;;;;;;40.17;23.10;;;1.40;99.90;;;;;;7389958;19;20304;-77
2023/01/25 00:51:55;;;;;;;37.67;23.52;;;1.40;99.90;;;;;;7390585;19;20333;-78
2023/01/25 00:54:21;;;;;;;37.47;23.45;;;1.40;99.90;;;;;;7389877;19;20304;-78
2023/01/25 00:56:47;;;;;;;38.72;22.42;;;1.40;99.90;;;;;;7389103;19;20301;-79
2023/01/25 00:59:14;;;;;;;37.42;22.38;;;1.40;99.90;;;;;;7390256;19;20303;-78
2023/01/25 01:01:40;;;;;;;39.63;24.27;;;1.50;99.90;;;;;;7389803;19;20324;-79
2023/01/25 01:04:06;;;;;;;41.00;25.40;;;1.50;99.90;;;;;;7389470;19;20614;-78
2023/01/25 01:06:31;;;;;;;35.50;20.75;;;1.60;99.90;;;;;;7390830;19;20361;-80
2023/01/25 01:08:57;;;;;;;33.23;21.13;;;1.60;99.90;;;;;;7388421;19;20305;-77
2023/01/25 01:11:23;;;;;;;39.33;23.95;;;1.60;99.90;;;;;;7388710;19;20341;-78
2023/01/25 01:13:49;;;;;;;41.00;22.60;;;1.70;99.90;;;;;;7388537;19;20372;-77
2023/01/25 01:16:15;;;;;;;35.90;22.65;;;1.60;99.90;;;;;;7394052;19;21017;-76
2023/01/25 01:18:46;;;;;;;34.67;21.57;;;1.60;99.90;;;;;;7397552;19;20320;-80
2023/01/25 01:21:11;;;;;;;32.53;21.42;;;1.60;99.90;;;;;;7395189;19;20328;-79
2023/01/25 01:23:37;;;;;;;35.47;22.15;;;1.60;99.90;;;;;;7395729;19;20304;-76
2023/01/25 01:26:04;;;;;;;35.40;22.23;;;1.70;99.90;;;;;;7396432;19;20793;-79
2023/01/25 01:28:30;;;;;;;38.40;22.20;;;1.70;99.90;;;;;;7395060;19;21152;-78
2023/01/25 01:31:13;;;;;;;45.05;27.02;;;1.70;99.90;;;;;;7394491;19;20308;-79
2023/01/25 01:33:54;;;;;;;35.50;22.25;;;1.60;99.90;;;;;;7293664;19;2004786;-83
2023/01/25 01:36:22;;;;;;;49.27;28.67;;;1.60;99.90;;;;;;7396950;19;20304;-78
2023/01/25 01:38:47;;;;;;;44.38;26.23;;;1.60;99.90;;;;;;7394886;19;20951;-81
2023/01/25 01:41:20;;;;;;;34.28;21.35;;;1.60;99.90;;;;;;7397621;19;20384;-76
2023/01/25 01:43:46;;;;;;;33.00;20.30;;;1.60;99.90;;;;;;7396064;19;20309;-80
2023/01/25 01:46:24;;;;;;;34.73;21.83;;;1.60;99.90;;;;;;7395934;19;20317;-80
2023/01/25 01:48:55;;;;;;;34.50;20.90;;;1.60;99.90;;;;;;7292721;19;2004943;-82
2023/01/25 01:51:45;;;;;;;29.80;19.60;;;1.70;99.90;;;;;;7393859;19;20308;-81
2023/01/25 01:54:33;;;;;;;33.17;20.45;;;1.80;99.90;;;;;;7292458;19;2004391;-78
2023/01/25 01:57:13;;;;;;;34.90;20.27;;;1.90;99.90;;;;;;7395966;19;20312;-78
2023/01/25 01:59:46;;;;;;;37.67;21.73;;;2.00;99.90;;;;;;7395856;19;20319;-80
2023/01/25 02:02:12;;;;;;;35.00;21.23;;;2.00;99.90;;;;;;7393433;19;20360;-85
2023/01/25 02:04:38;;;;;;;35.33;21.45;;;2.00;99.90;;;;;;7394824;19;20380;-77
2023/01/25 02:07:47;;;;;;;33.78;20.67;;;2.10;99.90;;;;;;7394915;19;20305;-81
2023/01/25 02:10:13;;;;;;;30.90;19.38;;;2.10;99.90;;;;;;7187335;19;2004573;-77
2023/01/25 02:12:40;;;;;;;30.50;19.77;;;2.10;99.90;;;;;;7392935;19;20386;-80
2023/01/25 02:15:07;;;;;;;31.70;20.53;;;2.10;99.90;;;;;;7393075;19;20301;-76
2023/01/25 02:17:34;;;;;;;35.25;21.10;;;2.10;99.90;;;;;;7396033;19;20375;-80
2023/01/25 02:20:19;;;;;;;33.85;21.77;;;2.10;99.90;;;;;;7394228;19;20320;-80
2023/01/25 02:23:02;;;;;;;36.38;21.15;;;2.00;99.90;;;;;;7289780;19;2004426;-81
2023/01/25 02:25:31;;;;;;;33.38;20.83;;;2.00;99.90;;;;;;7390822;19;20337;-82
2023/01/25 02:28:08;;;;;;;33.42;21.10;;;2.00;99.90;;;;;;7389577;19;20337;-77
2023/01/25 02:30:34;;;;;;;35.22;22.38;;;2.00;99.90;;;;;;7393476;19;20316;-81
2023/01/25 02:32:59;;;;;;;36.72;21.88;;;1.90;99.90;;;;;;7393217;19;21191;-79
2023/01/25 02:35:46;;;;;;;50.00;26.47;;;1.90;99.90;;;;;;7392323;19;20333;-79
2023/01/25 02:38:16;;;;;;;46.00;25.85;;;1.80;99.90;;;;;;7286580;19;2004231;-80
2023/01/25 02:41:06;;;;;;;46.13;27.10;;;1.70;99.90;;;;;;7390535;19;20300;-78
2023/01/25 02:43:34;;;;;;;47.55;26.40;;;1.70;99.90;;;;;;7290049;19;2004476;-78
2023/01/25 02:46:30;;;;;;;44.38;23.92;;;1.60;99.90;;;;;;7391726;19;20376;-77
2023/01/25 02:48:57;;;;;;;43.10;25.23;;;1.60;99.90;;;;;;7289691;19;2004269;-78
2023/01/25 02:51:25;;;;;;;39.40;24.70;;;1.60;99.90;;;;;;7392317;19;20738;-79
2023/01/25 02:53:51;;;;;;;41.33;23.63;;;1.60;99.90;;;;;;7390985;19;20339;-80
2023/01/25 02:56:17;;;;;;;39.30;24.23;;;1.60;99.90;;;;;;7391455;19;20865;-77
2023/01/25 02:58:47;;;;;;;45.63;25.30;;;1.70;99.90;;;;;;7390346;19;20829;-79
2023/01/25 03:01:17;;;;;;;43.70;24.52;;;1.60;99.90;;;;;;7285991;19;2004175;-82
2023/01/25 03:03:43;;;;;;;49.13;26.98;;;1.70;99.90;;;;;;7389608;19;20338;-82
2023/01/25 03:06:12;;;;;;;39.55;24.02;;;1.70;99.90;;;;;;7388033;19;20305;-79
2023/01/25 03:08:40;;;;;;;41.07;25.07;;;1.60;99.90;;;;;;7387288;19;20750;-77
2023/01/25 03:11:06;;;;;;;48.60;26.65;;;1.60;99.90;;;;;;7389195;19;20390;-78
2023/01/25 03:13:32;;;;;;;52.50;29.08;;;1.50;99.90;;;;;;7390600;19;20315;-78
2023/01/25 03:16:02;;;;;;;42.80;24.20;;;1.50;99.90;;;;;;7390663;19;20412;-78
2023/01/25 03:18:28;;;;;;;42.38;24.85;;;1.50;99.90;;;;;;7369792;19;20392;-78
2023/01/25 03:20:55;;;;;;;53.85;27.90;;;1.40;99.90;;;;;;7387513;19;20301;-80
2023/01/25 03:23:25;;;;;;;48.03;26.05;;;1.50;99.90;;;;;;7389807;19;20333;-78
2023/01/25 03:25:52;;;;;;;43.15;24.13;;;1.40;99.90;;;;;;7388321;19;20321;-77
2023/01/25 03:28:18;;;;;;;43.00;24.85;;;1.40;99.90;;;;;;7387414;19;20656;-77
2023/01/25 03:30:53;;;;;;;46.25;25.05;;;1.40;99.90;;;;;;7386527;19;20323;-80
2023/01/25 03:33:18;;;;;;;42.13;24.55;;;1.50;99.90;;;;;;7368325;19;20364;-76
2023/01/25 03:35:44;;;;;;;37.20;22.45;;;1.40;99.90;;;;;;7388240;19;20352;-79
2023/01/25 03:38:10;;;;;;;44.40;23.38;;;1.60;99.90;;;;;;7361772;19;20331;-82
2023/01/25 03:40:43;;;;;;;41.97;24.80;;;1.50;99.90;;;;;;7362332;19;20348;-78
2023/01/25 03:43:11;;;;;;;44.20;24.65;;;1.50;99.90;;;;;;7368696;19;20326;-78
2023/01/25 03:45:36;;;;;;;36.03;22.38;;;1.40;99.90;;;;;;7388982;19;20404;-81
2023/01/25 03:48:02;;;;;;;40.90;23.83;;;1.50;99.90;;;;;;7382566;19;20345;-80
2023/01/25 03:50:28;;;;;;;38.63;23.10;;;1.50;99.90;;;;;;7385260;19;20390;-81
2023/01/25 03:53:00;;;;;;;38.72;22.73;;;1.50;99.90;;;;;;7386656;19;20324;-76
2023/01/25 03:55:29;;;;;;;38.17;23.60;;;1.50;99.90;;;;;;7386969;19;20388;-80
2023/01/25 03:57:55;;;;;;;41.03;22.73;;;1.50;99.90;;;;;;7389395;19;20316;-78
2023/01/25 04:00:20;;;;;;;40.85;23.73;;;1.50;99.90;;;;;;7363298;19;20324;-78
2023/01/25 04:02:54;;;;;;;42.58;24.23;;;1.60;99.90;;;;;;7386217;19;20444;-82
2023/01/25 04:05:20;;;;;;;38.73;22.90;;;1.60;99.90;;;;;;7389441;19;20321;-78
2023/01/25 04:07:46;;;;;;;38.70;22.92;;;1.50;99.90;;;;;;7365991;19;20316;-78
2023/01/25 04:10:14;;;;;;;38.40;22.38;;;1.40;99.90;;;;;;7386695;19;20332;-85
2023/01/25 04:12:43;;;;;;;38.47;23.23;;;1.50;99.90;;;;;;7382639;19;20466;-82
2023/01/25 04:15:09;;;;;;;40.33;23.37;;;1.50;99.90;;;;;;7387840;19;20937;-79
2023/01/25 04:17:35;;;;;;;40.58;23.45;;;1.50;99.90;;;;;;7387352;19;20308;-80
2023/01/25 04:20:11;;;;;;;42.42;22.35;;;1.50;99.90;;;;;;7367428;19;20300;-79
2023/01/25 04:22:44;;;;;;;41.00;24.27;;;1.50;99.90;;;;;;7386026;19;20325;-79
2023/01/25 04:25:10;;;;;;;40.37;23.63;;;1.50;99.90;;;;;;7387480;19;20301;-76
2023/01/25 04:27:41;;;;;;;45.25;24.65;;;1.60;99.90;;;;;;7383369;19;20361;-86
2023/01/25 04:30:12;;;;;;;38.53;22.75;;;1.60;99.90;;;;;;7383801;19;20344;-78
2023/01/25 04:32:38;;;;;;;33.60;21.23;;;1.50;99.90;;;;;;7386305;19;20311;-78
2023/01/25 04:35:15;;;;;;;36.75;20.83;;;1.60;99.90;;;;;;7282987;19;2004268;-79
2023/01/25 04:37:58;;;;;;;31.90;21.25;;;1.60;99.90;;;;;;7388111;19;20999;-77
2023/01/25 04:40:28;;;;;;;33.78;21.23;;;1.70;99.90;;;;;;7281531;19;2004235;-77
2023/01/25 04:42:54;;;;;;;36.60;21.60;;;1.70;99.90;;;;;;7385272;19;20610;-76
2023/01/25 04:45:20;;;;;;;35.27;21.87;;;1.70;99.90;;;;;;7384634;19;20857;-80
2023/01/25 04:47:48;;;;;;;34.22;21.17;;;1.70;99.90;;;;;;7383737;19;20346;-78
2023/01/25 04:50:15;;;;;;;37.10;20.88;;;1.70;99.90;;;;;;7389514;19;20304;-78
2023/01/25 04:52:42;;;;;;;39.97;22.25;;;1.70;99.90;;;;;;7393595;19;20312;-81
2023/01/25 04:55:08;;;;;;;36.00;21.23;;;1.70;99.90;;;;;;7391358;19;20317;-77
2023/01/25 04:57:39;;;;;;;38.45;20.20;;;1.80;99.90;;;;;;7392356;19;20376;-79
2023/01/25 05:00:06;;;;;;;40.60;21.52;;;1.90;99.90;;;;;;7389641;19;20415;-81
2023/01/25 05:02:32;;;;;;;33.70;21.15;;;1.90;99.90;;;;;;7394111;19;20341;-77
2023/01/25 05:05:11;;;;;;;36.58;21.15;;;2.00;99.90;;;;;;7392242;19;20345;-81
2023/01/25 05:07:36;;;;;;;36.05;20.38;;;2.00;99.90;;;;;;7365419;19;20424;-79
2023/01/25 05:10:05;;;;;;;34.58;20.83;;;2.00;99.90;;;;;;7389791;19;20316;-78
2023/01/25 05:12:31;;;;;;;32.72;20.33;;;2.00;99.90;;;;;;7391534;19;20326;-80
2023/01/25 05:15:06;;;;;;;35.33;20.35;;;1.90;99.90;;;;;;7389318;19;20321;-77
2023/01/25 05:17:32;;;;;;;33.22;20.65;;;1.90;99.90;;;;;;7389680;19;20313;-77
2023/01/25 05:19:58;;;;;;;35.23;20.60;;;1.90;99.90;;;;;;7389342;19;20297;-79
2023/01/25 05:22:25;;;;;;;31.55;20.63;;;1.90;99.90;;;;;;7388816;19;20323;-79
2023/01/25 05:24:57;;;;;;;34.58;20.88;;;1.90;99.90;;;;;;7364196;19;20342;-78
2023/01/25 05:27:25;;;;;;;37.88;21.45;;;1.90;99.90;;;;;;7391499;19;20312;-80
2023/01/25 05:30:00;;;;;;;37.33;21.42;;;1.90;99.90;;;;;;7370797;19;20320;-79
2023/01/25 05:32:39;;;;;;;48.08;25.33;;;1.80;99.90;;;;;;7366667;19;20327;-78
2023/01/25 05:35:07;;;;;;;32.55;21.13;;;1.80;99.90;;;;;;7391735;19;20319;-78
2023/01/25 05:37:33;;;;;;;34.78;20.05;;;1.80;99.90;;;;;;7323074;19;20352;-79
2023/01/25 05:40:07;;;;;;;33.40;19.90;;;1.80;99.90;;;;;;7389964;19;20325;-81
2023/01/25 05:42:36;;;;;;;31.55;19.92;;;1.90;99.90;;;;;;7366069;19;20320;-78
2023/01/25 05:45:05;;;;;;;32.70;18.92;;;1.90;99.90;;;;;;7390785;19;20333;-78
2023/01/25 05:47:32;;;;;;;28.67;18.70;;;2.00;99.90;;;;;;7390475;19;20403;-85
2023/01/25 05:49:58;;;;;;;32.85;19.25;;;1.90;99.90;;;;;;7391976;19;20402;-80
2023/01/25 05:52:37;;;;;;;28.65;19.15;;;2.00;99.90;;;;;;7391184;19;20324;-83
2023/01/25 05:55:03;;;;;;;33.80;19.88;;;2.10;99.90;;;;;;7388849;19;20320;-80
2023/01/25 05:57:29;;;;;;;34.78;20.85;;;2.10;99.90;;;;;;7386891;19;20352;-77
2023/01/25 05:59:56;;;;;;;36.47;20.10;;;2.00;99.90;;;;;;7385096;19;20339;-78
2023/01/25 06:02:22;;;;;;;34.75;20.20;;;2.00;99.90;;;;;;7385897;19;20444;-79
2023/01/25 06:04:48;;;;;;;32.83;19.70;;;2.00;99.90;;;;;;7386801;19;20305;-77
2023/01/25 06:07:14;;;;;;;33.93;19.67;;;2.00;99.90;;;;;;7387135;19;20317;-79
2023/01/25 06:09:42;;;;;;;33.35;20.50;;;2.00;99.90;;;;;;7379992;19;21135;-77
2023/01/25 06:12:09;;;;;;;30.27;19.10;;;2.10;99.90;;;;;;7383114;19;20981;-79
2023/01/25 06:14:35;;;;;;;30.27;18.45;;;2.20;99.90;;;;;;7387885;19;20320;-75
2023/01/25 06:17:02;;;;;;;28.80;18.75;;;2.20;99.90;;;;;;7383786;19;20663;-81
2023/01/25 06:19:31;;;;;;;32.73;19.70;;;2.20;99.90;;;;;;7382359;19;21227;-81
2023/01/25 06:22:08;;;;;;;31.20;19.17;;;2.20;99.90;;;;;;7380473;19;20333;-79
2023/01/25 06:24:33;;;;;;;38.13;20.30;;;2.20;99.90;;;;;;7381878;19;20333;-79
2023/01/25 06:26:59;;;;;;;39.83;23.00;;;2.20;99.90;;;;;;7382690;19;20345;-79
2023/01/25 06:29:25;;;;;;;38.53;22.37;;;2.00;99.90;;;;;;7378315;19;20345;-78
2023/01/25 06:31:51;;;;;;;33.30;20.45;;;2.00;99.90;;;;;;7378730;19;20739;-81
2023/01/25 06:34:17;;;;;;;31.00;18.60;;;1.90;99.90;;;;;;7378493;19;20396;-79
2023/01/25 06:36:42;;;;;;;29.92;18.63;;;1.90;99.90;;;;;;7381900;19;20409;-79
2023/01/25 06:39:08;;;;;;;28.77;18.40;;;2.00;99.90;;;;;;7378837;19;20351;-79
2023/01/25 06:41:34;;;;;;;30.55;19.10;;;2.00;99.90;;;;;;7379986;19;20329;-79
2023/01/25 06:43:59;;;;;;;33.30;18.67;;;2.10;99.90;;;;;;7382477;19;20317;-79
2023/01/25 06:46:25;;;;;;;29.75;18.33;;;2.10;99.90;;;;;;7383854;19;20787;-79
2023/01/25 06:48:50;;;;;;;29.17;18.53;;;2.10;99.90;;;;;;7383432;19;20857;-78
2023/01/25 06:51:16;;;;;;;30.90;18.77;;;2.20;99.90;;;;;;7382774;19;20357;-79
2023/01/25 06:53:43;;;;;;;32.83;18.87;;;2.20;99.90;;;;;;7382891;19;20659;-80
2023/01/25 06:56:09;;;;;;;29.03;18.40;;;2.20;99.90;;;;;;7383150;19;20326;-79
2023/01/25 06:58:35;;;;;;;30.85;19.25;;;2.20;99.90;;;;;;7383577;19;20312;-79
2023/01/25 07:01:06;;;;;;;30.40;17.77;;;2.10;99.90;;;;;;7379705;19;20656;-80
2023/01/25 07:03:32;;;;;;;30.13;18.95;;;2.10;99.90;;;;;;7380267;19;20344;-82
2023/01/25 07:06:01;;;;;;;35.92;21.85;;;2.10;99.90;;;;;;7382120;19;20436;-79
2023/01/25 07:08:27;;;;;;;32.83;19.83;;;2.00;99.90;;;;;;7383996;19;20696;-81
2023/01/25 07:10:56;;;;;;;32.05;20.52;;;2.10;99.90;;;;;;7381196;19;20330;-79
2023/01/25 07:13:23;;;;;;;29.85;19.13;;;2.20;99.90;;;;;;7379448;19;20312;-79
2023/01/25 07:15:55;;;;;;;29.30;17.90;;;2.20;99.90;;;;;;7382690;19;20324;-78
2023/01/25 07:18:21;;;;;;;30.00;18.83;;;2.20;99.90;;;;;;7384117;19;20320;-78
2023/01/25 07:20:46;;;;;;;35.72;19.30;;;2.20;99.90;;;;;;7381923;19;20851;-79
2023/01/25 07:23:12;;;;;;;31.27;18.87;;;2.20;99.90;;;;;;7397022;19;20877;-78
2023/01/25 07:25:43;;;;;;;25.48;16.08;;;2.20;99.90;;;;;;7385723;19;20301;-80
2023/01/25 07:28:09;;;;;;;21.85;15.13;;;2.00;99.90;;;;;;7382964;19;20305;-79
2023/01/25 07:30:35;;;;;;;27.33;16.13;;;2.00;99.90;;;;;;7379695;19;20312;-80
2023/01/25 07:33:00;;;;;;;21.60;12.67;;;1.90;99.90;;;;;;7382376;19;20321;-79
2023/01/25 07:35:26;;;;;;;19.77;14.20;;;1.90;99.90;;;;;;7381705;19;20352;-80
2023/01/25 07:37:51;;;;;;;18.47;12.27;;;1.80;99.90;;;;;;7385525;19;20873;-80
2023/01/25 07:40:17;;;;;;;25.10;15.20;;;1.90;99.90;;;;;;7381785;19;20356;-83
2023/01/25 07:42:42;;;;;;;20.80;13.23;;;1.90;99.90;;;;;;7385114;19;20329;-79
2023/01/25 07:45:12;;;;;;;21.48;14.52;;;1.90;99.90;;;;;;7383631;19;20322;-80
2023/01/25 07:47:37;;;;;;;18.20;11.48;;;2.00;99.90;;;;;;7384379;19;20309;-80
2023/01/25 07:50:03;;;;;;;18.97;12.20;;;2.00;99.90;;;;;;7382380;19;20416;-81
2023/01/25 07:52:29;;;;;;;20.25;12.70;;;1.90;99.90;;;;;;7383427;19;20352;-79
2023/01/25 07:54:54;;;;;;;19.50;12.07;;;1.90;99.90;;;;;;7384479;19;20317;-82
2023/01/25 07:57:20;;;;;;;19.92;12.48;;;1.90;99.90;;;;;;7385751;19;20358;-82
2023/01/25 07:59:45;;;;;;;18.37;11.37;;;2.00;99.90;;;;;;7383928;19;20861;-80
2023/01/25 08:02:11;;;;;;;19.42;12.30;;;2.00;99.90;;;;;;7384578;19;20340;-83
2023/01/25 08:04:37;;;;;;;15.43;11.27;;;1.90;99.90;;;;;;7383511;19;21147;-79
2023/01/25 08:07:03;;;;;;;17.23;12.77;;;1.90;99.90;;;;;;7386635;19;20846;-82
2023/01/25 08:09:28;;;;;;;18.20;10.57;;;1.90;99.90;;;;;;7382499;19;20374;-77
2023/01/25 08:11:54;;;;;;;17.73;11.90;;;1.90;99.90;;;;;;7382756;19;20324;-84
2023/01/25 08:14:20;;;;;;;19.85;12.05;;;1.90;99.90;;;;;;7403234;19;20328;-83
2023/01/25 08:16:45;;;;;;;17.17;11.70;;;1.90;99.90;;;;;;7404006;19;20339;-89
2023/01/25 08:19:11;;;;;;;20.97;12.37;;;1.90;99.90;;;;;;7405660;19;20341;-95
2023/01/25 08:21:37;;;;;;;19.60;10.80;;;1.90;99.90;;;;;;7406815;19;20340;-88
2023/01/25 08:24:04;;;;;;;22.73;12.70;;;1.80;99.90;;;;;;7408443;19;20340;-88
2023/01/25 08:26:29;;;;;;;17.13;10.63;;;1.80;99.90;;;;;;7401493;19;20348;-84
2023/01/25 08:28:55;;;;;;;16.98;11.23;;;1.80;99.90;;;;;;7393717;19;20444;-83
2023/01/25 08:31:25;;;;;;;17.67;12.47;;;1.80;99.90;;;;;;7399498;19;20476;-81
2023/01/25 08:33:51;;;;;;;18.55;13.07;;;1.90;99.90;;;;;;7365276;19;20360;-79
2023/01/25 08:36:17;;;;;;;18.13;12.13;;;1.90;99.90;;;;;;7383337;19;20356;-80
2023/01/25 08:38:44;;;;;;;21.63;12.73;;;1.90;99.90;;;;;;7384990;19;20324;-78
2023/01/25 08:41:14;;;;;;;17.50;10.80;;;1.80;99.90;;;;;;7382333;19;20360;-79
2023/01/25 08:43:41;;;;;;;18.60;11.98;;;1.80;99.90;;;;;;7381753;19;20342;-80
2023/01/25 08:46:06;;;;;;;16.85;11.30;;;1.80;99.90;;;;;;7384236;19;20671;-79
2023/01/25 08:48:32;;;;;;;23.55;13.68;;;1.80;99.90;;;;;;7382103;19;20412;-80
2023/01/25 08:50:58;;;;;;;18.53;12.30;;;1.70;99.90;;;;;;7377245;19;20353;-79
2023/01/25 08:53:25;;;;;;;17.25;10.98;;;1.70;99.90;;;;;;7380777;19;20490;-83
2023/01/25 08:55:51;;;;;;;17.10;11.75;;;1.70;99.90;;;;;;7382723;19;20389;-79
2023/01/25 08:58:18;;;;;;;18.60;11.80;;;1.70;99.90;;;;;;7383016;19;20388;-80
2023/01/25 09:00:44;;;;;;;20.08;12.60;;;1.70;99.90;;;;;;7382348;19;20363;-77
2023/01/25 09:03:10;;;;;;;19.08;12.18;;;1.70;99.90;;;;;;7383999;19;20316;-79
2023/01/25 09:05:36;;;;;;;19.23;11.60;;;1.70;99.90;;;;;;7381471;19;20329;-78
2023/01/25 09:08:03;;;;;;;18.17;10.40;;;1.70;99.90;;;;;;7382779;19;20351;-79
2023/01/25 09:10:29;;;;;;;16.73;10.70;;;1.70;99.90;;;;;;7381392;19;20355;-80
2023/01/25 09:12:54;;;;;;;16.10;10.07;;;1.70;99.90;;;;;;7381498;19;20427;-79
2023/01/25 09:15:21;;;;;;;14.55;10.82;;;1.70;99.90;;;;;;7380640;19;20686;-78
2023/01/25 09:17:49;;;;;;;17.87;11.57;;;1.70;99.90;;;;;;7381136;19;20324;-78
2023/01/25 09:20:16;;;;;;;18.93;10.47;;;1.70;99.90;;;;;;7380817;19;20316;-80
2023/01/25 09:22:41;;;;;;;16.63;11.30;;;1.70;99.90;;;;;;7382021;19;20360;-78
2023/01/25 09:25:07;;;;;;;20.17;11.70;;;1.70;99.90;;;;;;7379497;19;20321;-80
2023/01/25 09:27:33;;;;;;;16.95;10.45;;;1.70;99.90;;;;;;7380471;19;20404;-81
2023/01/25 09:29:58;;;;;;;18.50;11.15;;;1.70;99.90;;;;;;7380297;19;20320;-79
2023/01/25 09:32:24;;;;;;;16.60;10.93;;;1.60;99.90;;;;;;7378516;19;20340;-78
2023/01/25 09:34:52;;;;;;;15.02;10.10;;;1.70;99.90;;;;;;7380543;19;20889;-79
2023/01/25 09:37:18;;;;;;;17.10;10.27;;;1.70;99.90;;;;;;7387199;19;20313;-78
2023/01/25 09:39:43;;;;;;;17.60;11.20;;;1.70;99.90;;;;;;7384009;19;20849;-81
2023/01/25 09:42:12;;;;;;;20.15;10.85;;;1.70;99.90;;;;;;7387290;19;20353;-78
2023/01/25 09:44:57;;;;;;;15.43;10.68;;;1.80;99.90;;;;;;7386747;19;20309;-80
2023/01/25 09:47:44;;;;;;;13.65;9.25;;;1.70;99.90;;;;;;7286774;19;2004393;-78
2023/01/25 09:50:32;;;;;;;14.85;9.80;;;1.80;99.90;;;;;;7386284;19;20333;-83
2023/01/25 09:53:15;;;;;;;14.98;9.75;;;1.80;99.90;;;;;;7284694;19;2004305;-80
2023/01/25 09:55:41;;;;;;;13.57;8.73;;;1.80;99.90;;;;;;7383947;19;20336;-79
2023/01/25 09:58:13;;;;;;;17.03;11.17;;;1.80;99.90;;;;;;7387593;19;20313;-78
2023/01/25 10:00:43;;;;;;;16.13;10.20;;;1.70;99.90;;;;;;7385177;19;20897;-78
2023/01/25 10:03:22;;;;;;;19.57;10.50;;;1.70;99.90;;;;;;7387611;19;20328;-80
2023/01/25 10:05:52;;;;;;;13.50;9.52;;;1.70;99.90;;;;;;7283625;19;2019798;-78
2023/01/25 10:08:24;;;;;;;9.85;7.93;;;1.70;99.90;;;;;;7388484;19;20301;-81
2023/01/25 10:10:51;;;;;;;16.20;10.38;;;1.80;99.90;;;;;;7386366;19;20413;-78
2023/01/25 10:13:18;;;;;;;18.05;10.32;;;1.80;99.90;;;;;;7386238;19;20320;-78
2023/01/25 10:15:48;;;;;;;15.23;10.88;;;1.80;99.90;;;;;;7386217;19;20319;-85
2023/01/25 10:18:30;;;;;;;17.52;11.18;;;1.80;99.90;;;;;;7384233;19;20305;-80
2023/01/25 10:21:01;;;;;;;20.42;12.65;;;1.80;99.90;;;;;;7280548;19;2004336;-79
2023/01/25 10:23:44;;;;;;;16.15;10.50;;;1.70;99.90;;;;;;7383468;19;20341;-79
2023/01/25 10:26:17;;;;;;;19.55;11.93;;;1.70;99.90;;;;;;7386130;19;21259;-80
2023/01/25 10:28:48;;;;;;;17.05;10.05;;;1.70;99.90;;;;;;7383709;19;20341;-80
2023/01/25 10:31:19;;;;;;;17.73;11.60;;;1.70;99.90;;;;;;7386707;19;20331;-79
2023/01/25 10:33:46;;;;;;;20.30;12.43;;;1.70;99.90;;;;;;7383271;19;20395;-79
2023/01/25 10:36:14;;;;;;;20.25;12.18;;;1.70;99.90;;;;;;7385737;19;20938;-82
2023/01/25 10:38:48;;;;;;;20.25;12.13;;;1.70;99.90;;;;;;7386123;19;20335;-78
2023/01/25 10:41:45;;;;;;;17.80;10.90;;;1.70;99.90;;;;;;7384857;19;20850;-80
2023/01/25 10:44:20;;;;;;;17.73;12.37;;;1.80;99.90;;;;;;7278466;19;2004437;-81
2023/01/25 10:47:11;;;;;;;18.65;12.13;;;1.80;99.90;;;;;;7279384;19;2004328;-79
2023/01/25 10:49:51;;;;;;;16.60;10.98;;;1.80;99.90;;;;;;7383914;19;20324;-83
2023/01/25 10:52:21;;;;;;;22.10;12.70;;;1.80;99.90;;;;;;7282993;19;2010800;-79
2023/01/25 10:55:04;;;;;;;19.42;11.60;;;1.80;99.90;;;;;;7381533;19;20384;-80
2023/01/25 10:57:29;;;;;;;17.93;11.47;;;1.70;99.90;;;;;;7385310;19;20428;-78
2023/01/25 11:00:01;;;;;;;14.65;10.90;;;1.80;99.90;;;;;;7382821;19;20337;-79
2023/01/25 11:02:43;;;;;;;16.67;10.93;;;1.80;99.90;;;;;;7383341;19;20357;-78
2023/01/25 11:05:17;;;;;;;17.45;11.75;;;1.80;99.90;;;;;;7382239;19;20341;-84
2023/01/25 11:07:43;;;;;;;16.95;10.73;;;1.70;99.90;;;;;;7385608;19;20652;-78
2023/01/25 11:10:28;;;;;;;15.70;10.70;;;1.70;99.90;;;;;;7382175;19;20313;-78
2023/01/25 11:13:12;;;;;;;15.27;9.75;;;1.80;99.90;;;;;;7280764;19;2018034;-81
2023/01/25 11:15:49;;;;;;;16.27;11.13;;;1.70;99.90;;;;;;7381887;19;26790;-78
2023/01/25 11:18:21;;;;;;;16.45;10.93;;;1.70;99.90;;;;;;7386280;19;20405;-79
2023/01/25 11:20:47;;;;;;;17.52;11.90;;;1.70;99.90;;;;;;7278440;19;2004417;-80
2023/01/25 11:23:23;;;;;;;16.52;9.73;;;1.70;99.90;;;;;;7385556;19;20324;-82
2023/01/25 11:25:50;;;;;;;15.02;9.88;;;1.60;99.90;;;;;;7281408;19;2004398;-80
2023/01/25 11:28:20;;;;;;;18.88;11.07;;;1.60;99.90;;;;;;7382530;19;20395;-81
2023/01/25 11:30:46;;;;;;;17.95;11.60;;;1.60;99.90;;;;;;7382484;19;20320;-80
2023/01/25 11:33:13;;;;;;;13.45;9.25;;;1.60;99.90;;;;;;7384600;19;20316;-79
2023/01/25 11:35:57;;;;;;;16.77;9.48;;;1.50;99.90;;;;;;7381747;19;20865;-83
2023/01/25 11:38:22;;;;;;;15.07;10.13;;;1.50;99.90;;;;;;7281438;19;2004577;-78
2023/01/25 11:41:07;;;;;;;14.38;10.40;;;1.50;99.90;;;;;;7380427;19;20677;-78
2023/01/25 11:44:04;;;;;;;15.32;9.07;;;1.50;99.90;;;;;;7381136;19;20349;-79
2023/01/25 11:46:30;;;;;;;12.07;9.00;;;1.50;99.90;;;;;;7279978;19;2004271;-78
2023/01/25 11:49:16;;;;;;;14.57;9.13;;;1.50;99.90;;;;;;7380829;19;20328;-83
2023/01/25 11:51:48;;;;;;;12.95;8.43;;;1.40;99.90;;;;;;7382855;19;20316;-78
2023/01/25 11:54:31;;;;;;;12.15;8.52;;;1.50;99.90;;;;;;7381424;19;20313;-79
2023/01/25 11:56:58;;;;;;;15.38;9.65;;;1.60;99.90;;;;;;7280447;19;2004306;-78
2023/01/25 11:59:52;;;;;;;14.05;9.90;;;1.60;99.90;;;;;;7379106;19;20320;-79
2023/01/25 12:02:47;;;;;;;14.27;9.98;;;1.60;99.90;;;;;;7279303;19;2004671;-79
2023/01/25 12:05:52;;;;;;;14.00;8.48;;;1.60;99.90;;;;;;7382233;19;20322;-78
2023/01/25 12:08:40;;;;;;;15.68;9.13;;;1.60;99.90;;;;;;7177705;19;2004548;-79
2023/01/25 12:11:14;;;;;;;14.77;10.02;;;1.60;99.90;;;;;;7381493;19;20386;-78
2023/01/25 12:13:50;;;;;;;16.33;11.10;;;1.60;99.90;;;;;;7380642;19;20376;-83
2023/01/25 12:16:40;;;;;;;15.70;10.23;;;1.50;99.90;;;;;;7280647;19;2006002;-80
2023/01/25 12:19:38;;;;;;;15.18;9.05;;;1.60;99.90;;;;;;7380157;19;20348;-81
2023/01/25 12:22:16;;;;;;;14.57;9.55;;;1.50;99.90;;;;;;7281894;19;2004901;-78
2023/01/25 12:24:53;;;;;;;13.27;9.77;;;1.50;99.90;;;;;;7381551;19;20328;-81
2023/01/25 12:27:56;;;;;;;14.63;9.65;;;1.40;99.90;;;;;;7279399;19;2004513;-77
2023/01/25 12:30:55;;;;;;;21.00;12.43;;;1.40;99.90;;;;;;7276667;19;2006215;-79
2023/01/25 12:33:33;;;;;;;14.68;9.30;;;1.30;99.90;;;;;;7277837;19;2019128;-76
2023/01/25 12:36:10;;;;;;;15.90;9.23;;;1.40;99.90;;;;;;7380932;19;20320;-79
2023/01/25 12:38:38;;;;;;;15.80;10.85;;;1.30;99.90;;;;;;7381640;19;20312;-78
2023/01/25 12:41:24;;;;;;;15.23;8.80;;;1.40;99.90;;;;;;7381412;19;20320;-78
2023/01/25 12:43:54;;;;;;;12.85;7.93;;;1.40;99.90;;;;;;7278911;19;2004482;-77
2023/01/25 12:46:29;;;;;;;14.45;9.27;;;1.50;99.90;;;;;;7381280;19;20344;-80
2023/01/25 12:48:56;;;;;;;13.95;10.05;;;1.50;99.90;;;;;;7379609;19;20992;-79
2023/01/25 12:51:31;;;;;;;14.80;9.82;;;1.50;99.90;;;;;;7381691;19;20687;-79